createdAt,value
2019-03-11T00:01:18.750Z,39.30
2019-03-11T00:06:20.062Z,39.10
2019-03-11T00:11:21.529Z,39.20
2019-03-11T00:16:23.058Z,39.40
2019-03-11T00:21:24.464Z,39.70
2019-03-11T00:26:25.910Z,39.30
2019-03-11T00:31:27.295Z,39.30
2019-03-11T00:36:28.623Z,39.30
2019-03-11T00:41:30.007Z,39.30
2019-03-11T00:46:31.342Z,39.30
2019-03-11T00:51:32.713Z,39.20
2019-03-11T00:56:34.078Z,39.30
2019-03-11T01:01:35.482Z,39.30
2019-03-11T01:06:37.032Z,39.20
2019-03-11T01:11:38.364Z,39.30
2019-03-11T01:16:39.920Z,39.20
2019-03-11T01:21:41.348Z,39.10
2019-03-11T01:26:42.747Z,39.00
2019-03-11T01:31:44.107Z,39.00
2019-03-11T01:36:45.511Z,38.90
2019-03-11T01:41:46.893Z,39.00
2019-03-11T01:46:48.224Z,39.10
2019-03-11T01:51:49.563Z,39.00
2019-03-11T01:56:50.975Z,39.10
2019-03-11T02:01:52.352Z,39.00
2019-03-11T02:06:54.727Z,39.10
2019-03-11T02:11:56.063Z,39.10
2019-03-11T02:16:57.450Z,39.20
2019-03-11T02:21:58.794Z,39.10
2019-03-11T02:27:00.192Z,39.00
2019-03-11T02:32:01.648Z,39.00
2019-03-11T02:37:03.204Z,39.00
2019-03-11T02:42:04.592Z,39.20
2019-03-11T02:47:05.923Z,39.00
2019-03-11T02:52:07.270Z,39.00
2019-03-11T02:57:08.589Z,39.00
2019-03-11T03:02:29.763Z,38.90
2019-03-11T03:07:31.242Z,38.90
2019-03-11T03:12:32.614Z,38.90
2019-03-11T03:17:33.987Z,39.00
2019-03-11T03:22:35.367Z,38.70
2019-03-11T03:27:37.652Z,38.90
2019-03-11T03:32:39.097Z,38.90
2019-03-11T03:37:40.496Z,38.70
2019-03-11T03:42:42.215Z,38.70
2019-03-11T03:47:43.627Z,38.70
2019-03-11T03:52:45.057Z,38.60
2019-03-11T03:57:46.543Z,38.70
2019-03-11T04:02:47.988Z,38.50
2019-03-11T04:07:49.379Z,38.60
2019-03-11T04:12:50.805Z,38.50
2019-03-11T04:17:52.148Z,38.60
2019-03-11T04:22:54.616Z,38.40
2019-03-11T04:27:56.852Z,38.50
2019-03-11T04:32:58.431Z,38.50
2019-03-11T04:37:59.752Z,38.50
2019-03-11T04:43:01.183Z,38.30
2019-03-11T04:48:02.510Z,38.30
2019-03-11T04:53:03.843Z,38.40
2019-03-11T04:58:05.364Z,38.40
2019-03-11T05:03:06.939Z,38.30
2019-03-11T05:08:08.369Z,38.40
2019-03-11T05:13:09.713Z,38.60
2019-03-11T05:18:11.107Z,38.60
2019-03-11T05:23:12.529Z,38.60
2019-03-11T05:28:13.941Z,38.60
2019-03-11T05:33:18.480Z,38.50
2019-03-11T05:38:19.837Z,38.50
2019-03-11T05:43:21.255Z,38.30
2019-03-11T05:48:22.568Z,38.40
2019-03-11T05:53:23.915Z,38.40
2019-03-11T05:58:25.294Z,38.40
2019-03-11T06:03:27.717Z,38.30
2019-03-11T06:08:29.175Z,38.30
2019-03-11T06:13:36.061Z,38.30
2019-03-11T06:18:45.416Z,38.50
2019-03-11T06:23:46.893Z,38.30
2019-03-11T06:28:48.242Z,38.40
2019-03-11T06:33:49.557Z,38.60
2019-03-11T06:38:50.912Z,38.40
2019-03-11T06:43:52.317Z,38.30
2019-03-11T06:48:53.777Z,38.60
2019-03-11T06:53:55.148Z,38.50
2019-03-11T06:58:56.547Z,38.50
2019-03-11T07:03:57.873Z,38.60
2019-03-11T07:08:59.273Z,38.30
2019-03-11T07:14:00.803Z,38.50
2019-03-11T07:19:02.190Z,38.60
2019-03-11T07:24:03.587Z,38.50
2019-03-11T07:29:04.912Z,38.50
2019-03-11T07:34:07.327Z,38.20
2019-03-11T07:39:08.882Z,38.50
2019-03-11T07:44:10.371Z,38.70
2019-03-11T07:49:11.684Z,38.90
2019-03-11T07:54:13.198Z,38.40
2019-03-11T07:59:14.615Z,38.80
2019-03-11T08:04:16.008Z,38.50
2019-03-11T08:09:17.343Z,38.50
2019-03-11T08:14:21.810Z,38.80
2019-03-11T08:19:24.391Z,38.70
2019-03-11T08:24:25.739Z,38.80
2019-03-11T08:29:27.127Z,38.90
2019-03-11T08:34:28.460Z,39.00
2019-03-11T08:39:29.856Z,38.70
2019-03-11T08:44:31.184Z,39.00
2019-03-11T08:49:32.583Z,39.30
2019-03-11T08:54:33.919Z,39.10
2019-03-11T08:59:35.344Z,39.20
2019-03-11T09:04:36.754Z,39.20
2019-03-11T09:09:38.167Z,38.90
2019-03-11T09:14:39.583Z,38.70
2019-03-11T09:19:42.099Z,38.60
2019-03-11T09:24:43.477Z,38.30
2019-03-11T09:29:45.203Z,38.80
2019-03-11T09:34:46.603Z,38.40
2019-03-11T09:39:47.928Z,38.30
2019-03-11T09:44:49.272Z,38.00
2019-03-11T09:49:50.663Z,37.90
2019-03-11T09:54:52.055Z,37.60
2019-03-11T09:59:53.383Z,37.60
2019-03-11T10:04:54.782Z,37.00
2019-03-11T10:09:56.147Z,37.40
2019-03-11T10:14:57.507Z,36.80
2019-03-11T10:19:58.843Z,36.70
2019-03-11T10:25:00.393Z,36.90
2019-03-11T10:30:16.637Z,36.90
2019-03-11T10:35:31.233Z,36.80
2019-03-11T10:40:30.660Z,37.40
2019-03-11T10:45:33.032Z,36.70
2019-03-11T10:50:34.463Z,36.60
2019-03-11T10:55:35.868Z,36.50
2019-03-11T11:00:37.599Z,36.40
2019-03-11T11:05:38.995Z,36.30
2019-03-11T11:10:40.388Z,36.20
2019-03-11T11:15:41.800Z,36.30
2019-03-11T11:20:44.228Z,36.30
2019-03-11T11:25:45.554Z,36.10
2019-03-11T11:30:46.942Z,36.00
2019-03-11T11:35:48.259Z,36.10
2019-03-11T11:40:49.679Z,35.80
2019-03-11T11:45:51.106Z,35.80
2019-03-11T11:50:53.626Z,35.70
2019-03-11T11:55:58.101Z,35.50
2019-03-11T12:00:59.242Z,35.60
2019-03-11T12:06:00.702Z,35.50
2019-03-11T12:11:02.327Z,35.50
2019-03-11T12:16:03.858Z,35.40
2019-03-11T12:21:05.210Z,35.40
2019-03-11T12:26:06.628Z,35.40
2019-03-11T12:31:08.011Z,35.40
2019-03-11T12:36:09.378Z,35.40
2019-03-11T12:41:10.756Z,35.30
2019-03-11T12:46:12.078Z,35.30
2019-03-11T12:51:13.419Z,35.30
2019-03-11T12:56:15.776Z,35.20
2019-03-11T13:01:17.213Z,35.10
2019-03-11T13:06:18.627Z,35.00
2019-03-11T13:11:20.046Z,35.00
2019-03-11T13:16:21.422Z,34.70
2019-03-11T13:21:24.973Z,35.10
2019-03-11T13:26:26.299Z,35.00
2019-03-11T13:31:27.838Z,35.30
2019-03-11T13:36:29.242Z,35.00
2019-03-11T13:41:30.671Z,35.10
2019-03-11T13:46:32.134Z,35.40
2019-03-11T13:51:33.595Z,35.10
2019-03-11T13:56:34.946Z,35.50
2019-03-11T14:01:36.266Z,35.40
2019-03-11T14:06:38.536Z,35.40
2019-03-11T14:11:40.563Z,35.40
2019-03-11T14:16:41.880Z,35.50
2019-03-11T14:21:43.228Z,35.60
2019-03-11T14:26:44.599Z,35.70
2019-03-11T14:31:45.967Z,35.40
2019-03-11T14:36:47.316Z,35.40
2019-03-11T14:41:48.675Z,35.60
2019-03-11T14:46:50.064Z,35.40
2019-03-11T14:51:51.387Z,35.40
2019-03-11T14:56:52.790Z,35.40
2019-03-11T15:01:54.254Z,35.40
2019-03-11T15:06:55.589Z,35.30
2019-03-11T15:11:58.015Z,35.50
2019-03-11T15:16:59.575Z,35.40
2019-03-11T15:22:00.940Z,35.40
2019-03-11T15:27:02.478Z,35.50
2019-03-11T15:32:03.943Z,35.40
2019-03-11T15:37:07.637Z,35.10
2019-03-11T15:42:08.654Z,35.20
2019-03-11T15:47:11.042Z,35.00
2019-03-11T15:52:12.474Z,35.20
2019-03-11T15:57:13.831Z,35.20
2019-03-11T16:02:15.406Z,35.20
2019-03-11T16:07:16.808Z,35.10
2019-03-11T16:12:18.127Z,35.10
2019-03-11T16:17:19.509Z,35.20
2019-03-11T16:22:24.272Z,35.20
2019-03-11T16:27:25.383Z,35.40
2019-03-11T16:32:26.767Z,35.30
2019-03-11T16:37:28.173Z,35.30
2019-03-11T16:42:29.595Z,34.70
2019-03-11T16:47:30.985Z,35.20
2019-03-11T16:52:32.409Z,35.10
2019-03-11T16:57:34.823Z,35.40
2019-03-11T17:02:36.311Z,35.60
2019-03-11T17:07:37.653Z,35.60
2019-03-11T17:12:39.005Z,35.40
2019-03-11T17:17:40.411Z,35.50
2019-03-11T17:22:42.066Z,35.30
2019-03-11T17:27:43.408Z,35.40
2019-03-11T17:32:45.090Z,35.50
2019-03-11T17:37:46.443Z,35.60
2019-03-11T17:42:48.038Z,35.70
2019-03-11T17:47:49.570Z,35.70
2019-03-11T17:52:51.195Z,35.90
2019-03-11T17:57:52.638Z,35.80
2019-03-11T18:02:55.262Z,35.80
2019-03-11T18:07:57.634Z,35.80
2019-03-11T18:12:58.987Z,36.00
2019-03-11T18:18:00.430Z,35.70
2019-03-11T18:23:01.924Z,35.90
2019-03-11T18:28:03.467Z,36.00
2019-03-11T18:33:04.974Z,36.20
2019-03-11T18:38:06.681Z,36.30
2019-03-11T18:43:20.156Z,36.50
2019-03-11T18:48:13.426Z,36.30
2019-03-11T18:53:14.991Z,36.50
2019-03-11T18:58:16.434Z,36.60
2019-03-11T19:03:18.640Z,36.90
2019-03-11T19:08:20.015Z,37.00
2019-03-11T19:13:21.411Z,37.10
2019-03-11T19:18:22.875Z,36.60
2019-03-11T19:23:25.569Z,37.50
2019-03-11T19:28:27.345Z,37.60
2019-03-11T19:33:28.809Z,37.90
2019-03-11T19:38:30.400Z,37.70
2019-03-11T19:43:31.835Z,37.80
2019-03-11T19:48:33.488Z,37.50
2019-03-11T19:53:35.978Z,37.90
2019-03-11T19:58:37.557Z,37.90
2019-03-11T20:03:38.992Z,37.80
2019-03-11T20:08:40.484Z,37.80
2019-03-11T20:13:41.994Z,37.70
2019-03-11T20:18:43.579Z,37.50
2019-03-11T20:23:45.046Z,37.60
2019-03-11T20:28:46.629Z,37.50
2019-03-11T20:33:48.238Z,37.50
2019-03-11T20:38:49.835Z,37.50
2019-03-11T20:43:51.286Z,37.40
2019-03-11T20:48:52.878Z,37.40
2019-03-11T20:53:54.346Z,37.40
2019-03-11T20:58:55.807Z,37.30
2019-03-11T21:03:57.318Z,37.00
2019-03-11T21:09:00.768Z,37.40
2019-03-11T21:14:02.654Z,37.40
2019-03-11T21:19:03.999Z,37.30
2019-03-11T21:24:06.480Z,37.20
2019-03-11T21:29:07.939Z,38.10
2019-03-11T21:34:09.997Z,37.20
2019-03-11T21:39:11.624Z,37.70
2019-03-11T21:44:13.255Z,37.30
2019-03-11T21:49:14.691Z,37.30
2019-03-11T21:54:16.285Z,37.30
2019-03-11T21:59:17.818Z,37.40
2019-03-11T22:04:19.376Z,37.30
2019-03-11T22:09:20.934Z,37.40
2019-03-11T22:14:22.428Z,37.50
2019-03-11T22:19:24.809Z,37.60
2019-03-11T22:24:26.207Z,37.50
2019-03-11T22:29:27.637Z,37.40
2019-03-11T22:34:29.126Z,37.70
2019-03-11T22:39:30.539Z,37.70
2019-03-11T22:44:32.085Z,37.60
2019-03-11T22:49:33.550Z,37.90
2019-03-11T22:54:34.948Z,37.90
2019-03-11T22:59:36.486Z,38.70
2019-03-11T23:04:38.068Z,38.00
2019-03-11T23:09:39.435Z,38.10
2019-03-11T23:14:40.897Z,38.00
2019-03-11T23:19:42.400Z,38.70
2019-03-11T23:24:43.836Z,38.00
2019-03-11T23:29:45.196Z,38.00
2019-03-11T23:34:46.543Z,38.10
2019-03-11T23:39:47.971Z,37.90
2019-03-11T23:44:49.384Z,38.10
2019-03-11T23:49:50.759Z,37.90
2019-03-11T23:54:52.192Z,38.00
2019-03-11T23:59:53.595Z,38.00
